Time;durP1;ratioP1;P1;durP2;ratioP2;P2;SDS_P1;SDS_P2;PMS_P1;PMS_P2;Temp;Humidity;BMP_temperature;BMP_pressure;BME280_temperature;BME280_humidity;BME280_pressure;Samples;Min_cycle;Max_cycle;Signal;HPM_P1;HPM_P2
2022/03/31 07:06:12;;;;;;;5.65;3.63;;;;;;;4.56;93.67;99671.88;5072544;27;20739;-70
2022/03/31 07:08:39;;;;;;;4.43;3.63;;;;;;;4.65;93.44;99667.78;5063059;28;20044;-68
2022/03/31 07:11:06;;;;;;;6.00;3.45;;;;;;;4.71;92.48;99677.78;5065068;28;20522;-71
2022/03/31 07:13:32;;;;;;;6.35;4.63;;;;;;;4.73;92.56;99674.13;5067415;28;20099;-73
2022/03/31 07:15:59;;;;;;;6.20;3.45;;;;;;;4.78;92.94;99670.25;5071295;28;20551;-71
2022/03/31 07:18:26;;;;;;;8.60;4.80;;;;;;;4.74;92.18;99668.78;5066252;28;20559;-71
2022/03/31 07:23:37;;;;;;;6.55;4.32;;;;;;;4.73;92.60;99667.13;5108993;27;20354;-72
2022/03/31 07:26:13;;;;;;;6.07;4.38;;;;;;;4.85;92.16;99668.84;5091111;28;20044;-72
2022/03/31 07:28:39;;;;;;;13.15;5.50;;;;;;;4.85;91.24;99676.66;5091377;28;20047;-72
2022/03/31 07:31:06;;;;;;;4.43;3.72;;;;;;;4.82;90.97;99669.06;5095182;28;20035;-72
2022/03/31 07:33:32;;;;;;;11.85;5.85;;;;;;;4.69;91.71;99669.25;5073831;28;20047;-73
2022/03/31 07:35:59;;;;;;;7.85;5.65;;;;;;;4.74;92.29;99666.19;5089073;28;20039;-72
2022/03/31 07:38:25;;;;;;;6.90;4.47;;;;;;;4.80;91.76;99670.94;5083435;28;20048;-73
2022/03/31 07:40:54;;;;;;;6.93;4.55;;;;;;;4.86;91.85;99667.91;5077354;28;20043;-72
2022/03/31 07:46:18;;;;;;;12.40;6.80;;;;;;;4.89;90.96;99666.84;5083252;27;20487;-72
2022/03/31 07:49:00;;;;;;;8.63;4.72;;;;;;;4.97;90.85;99665.34;5081832;28;20185;-72
2022/03/31 07:51:27;;;;;;;9.02;4.22;;;;;;;5.01;90.23;99671.16;5094582;28;20139;-73
2022/03/31 07:53:53;;;;;;;4.82;3.33;;;;;;;4.84;90.54;99669.78;5095249;28;20071;-72
2022/03/31 07:56:20;;;;;;;5.38;3.78;;;;;;;4.88;90.89;99666.00;5091193;28;20036;-72
2022/03/31 07:58:46;;;;;;;6.60;3.20;;;;;;;4.84;89.85;99672.38;5092135;28;20044;-72
2022/03/31 08:01:13;;;;;;;20.65;5.57;;;;;;;4.84;90.15;99668.97;5092021;28;20036;-72
2022/03/31 08:03:41;;;;;;;3.25;2.95;;;;;;;4.87;90.52;99669.56;5096049;28;20070;-72
2022/03/31 08:06:08;;;;;;;5.03;3.58;;;;;;;4.88;90.04;99671.22;5087099;28;20041;-73
2022/03/31 08:08:35;;;;;;;3.17;2.65;;;;;;;4.87;90.43;99672.19;5099133;28;20073;-76
2022/03/31 08:11:02;;;;;;;5.43;3.70;;;;;;;4.89;89.83;99672.88;5087238;28;20040;-72
2022/03/31 08:13:29;;;;;;;3.80;3.08;;;;;;;4.95;90.23;99659.44;5097604;28;20063;-72
2022/03/31 08:15:57;;;;;;;6.70;3.40;;;;;;;4.98;90.45;99666.19;5066126;28;20040;-73
2022/03/31 08:18:26;;;;;;;7.88;3.67;;;;;;;4.68;90.63;99664.97;5076323;28;20148;-72
2022/03/31 08:20:54;;;;;;;5.38;3.58;;;;;;;4.62;91.23;99663.63;5094942;28;20043;-72
2022/03/31 08:26:26;;;;;;;5.13;3.25;;;;;;;4.77;91.00;99667.72;5171128;27;20875;-73
2022/03/31 08:29:13;;;;;;;7.13;3.50;;;;;;;4.74;91.14;99674.00;5147675;27;20468;-75
2022/03/31 08:31:40;;;;;;;6.05;3.60;;;;;;;4.72;90.42;99669.03;5145616;27;20070;-73
2022/03/31 08:34:07;;;;;;;5.63;3.55;;;;;;;4.69;91.10;99684.84;5146099;27;20153;-72
2022/03/31 08:39:45;;;;;;;4.18;3.20;;;;;;;4.43;92.63;99678.88;5076543;27;20401;-74
2022/03/31 08:42:20;;;;;;;4.75;3.33;;;;;;;4.41;92.33;99670.38;5071867;28;20054;-72
2022/03/31 08:44:47;;;;;;;9.45;2.45;;;;;;;4.42;92.31;99672.06;5104642;27;20055;-74
2022/03/31 08:47:17;;;;;;;2.15;1.55;;;;;;;4.41;92.63;99669.53;5106185;27;20155;-74
2022/03/31 08:49:44;;;;;;;5.20;2.45;;;;;;;4.26;93.43;99678.44;5090752;28;20070;-72
2022/03/31 08:52:11;;;;;;;3.67;2.53;;;;;;;4.18;94.28;99683.34;5104330;27;20143;-74
2022/03/31 08:54:37;;;;;;;3.60;1.75;;;;;;;4.07;94.42;99683.25;5092091;28;20151;-72
2022/03/31 08:57:05;;;;;;;7.18;3.05;;;;;;;3.99;94.92;99686.38;5104685;27;20047;-72
2022/03/31 08:59:32;;;;;;;4.45;2.95;;;;;;;4.06;95.38;99686.81;5106991;28;20076;-75
2022/03/31 09:01:59;;;;;;;3.40;2.15;;;;;;;4.03;94.80;99689.59;5115652;27;20063;-74
2022/03/31 09:04:26;;;;;;;5.38;3.15;;;;;;;4.06;94.24;99689.41;5107555;27;20070;-74
2022/03/31 09:10:12;;;;;;;2.13;1.80;;;;;;;4.15;94.95;99693.94;5053218;27;20911;-72
2022/03/31 09:12:48;;;;;;;4.45;2.78;;;;;;;4.03;93.97;99702.59;5030576;28;20381;-73
2022/03/31 09:15:15;;;;;;;2.22;1.40;;;;;;;3.99;94.95;99695.94;5034583;28;20130;-73
2022/03/31 09:17:42;;;;;;;2.65;1.77;;;;;;;3.89;95.00;99696.66;5038046;28;20052;-73
2022/03/31 09:20:09;;;;;;;0.95;0.80;;;;;;;3.75;95.42;99691.59;5038357;28;20136;-72
2022/03/31 09:22:45;;;;;;;2.17;1.92;;;;;;;3.80;95.74;99702.50;5038848;28;20042;-75
2022/03/31 09:25:13;;;;;;;2.05;1.85;;;;;;;3.80;96.05;99698.16;5033774;28;20037;-73
2022/03/31 09:28:01;;;;;;;3.67;2.83;;;;;;;3.89;96.18;99697.53;5027199;28;20049;-69
2022/03/31 09:30:32;;;;;;;2.40;1.75;;;;;;;3.81;95.22;99707.59;5036020;28;20052;-74
2022/03/31 09:33:02;;;;;;;2.50;1.52;;;;;;;3.81;95.00;99709.34;5031818;28;20119;-74
2022/03/31 09:35:28;;;;;;;4.03;1.70;;;;;;;3.65;94.98;99703.53;5043844;28;20061;-72
2022/03/31 09:37:55;;;;;;;1.42;0.98;;;;;;;3.55;95.01;99710.28;5036412;28;20045;-73
2022/03/31 09:40:23;;;;;;;1.52;1.20;;;;;;;3.57;95.41;99714.44;5041003;28;20047;-76
2022/03/31 09:43:00;;;;;;;1.45;1.13;;;;;;;3.49;95.43;99698.53;5043574;28;20048;-76
2022/03/31 09:45:37;;;;;;;1.40;1.17;;;;;;;3.45;95.25;99699.69;5045113;28;20481;-75
2022/03/31 09:48:08;;;;;;;1.20;0.88;;;;;;;3.40;95.41;99706.97;5058893;28;20072;-73
2022/03/31 09:50:36;;;;;;;1.30;0.90;;;;;;;3.33;95.28;99697.88;5042623;28;20045;-75
2022/03/31 09:53:04;;;;;;;1.33;0.95;;;;;;;3.28;94.92;99705.16;5032056;28;20065;-74
2022/03/31 09:55:33;;;;;;;1.40;1.00;;;;;;;3.32;96.02;99703.19;5041009;28;20037;-74
2022/03/31 09:58:01;;;;;;;1.38;0.90;;;;;;;3.30;95.77;99702.44;5035686;28;20127;-73
2022/03/31 10:00:30;;;;;;;1.38;1.02;;;;;;;3.36;96.00;99707.25;5037042;28;20041;-73
2022/03/31 10:02:59;;;;;;;1.17;0.95;;;;;;;3.35;95.97;99701.22;5035035;28;20041;-72
2022/03/31 10:05:27;;;;;;;1.23;1.05;;;;;;;3.43;95.56;99704.13;5038684;28;20177;-75
2022/03/31 10:07:54;;;;;;;1.20;0.77;;;;;;;3.55;95.82;99703.34;5033517;28;20061;-74
2022/03/31 10:10:20;;;;;;;1.35;1.05;;;;;;;3.58;95.43;99708.31;5031296;28;20473;-72
2022/03/31 10:12:54;;;;;;;4.68;2.03;;;;;;;3.60;95.33;99711.63;5033790;28;20136;-72
2022/03/31 10:15:25;;;;;;;2.22;1.30;;;;;;;3.58;94.91;99707.47;5038309;28;20037;-73
2022/03/31 10:17:52;;;;;;;0.80;0.70;;;;;;;3.66;94.92;99713.81;5037312;28;20044;-73
2022/03/31 10:20:21;;;;;;;1.67;1.10;;;;;;;3.66;94.83;99706.03;5033694;28;20110;-73
2022/03/31 10:25:46;;;;;;;3.03;2.05;;;;;;;3.70;95.48;99706.66;4968488;28;20174;-72
2022/03/31 10:28:15;;;;;;;2.15;1.65;;;;;;;3.83;95.43;99708.31;4996194;28;20499;-75
2022/03/31 10:30:53;;;;;;;2.17;1.48;;;;;;;3.99;95.33;99701.97;5017881;28;20136;-74
2022/03/31 10:33:28;;;;;;;4.13;1.65;;;;;;;4.09;93.94;99704.75;5007522;28;20129;-75
2022/03/31 10:36:02;;;;;;;2.78;2.25;;;;;;;4.16;93.70;99704.25;5007074;28;20072;-73
2022/03/31 10:38:33;;;;;;;1.00;0.60;;;;;;;4.13;92.56;99701.84;5026790;28;20216;-72
2022/03/31 10:41:05;;;;;;;3.80;0.93;;;;;;;4.25;93.23;99700.16;5019185;28;20053;-73
2022/03/31 10:43:34;;;;;;;1.85;1.27;;;;;;;4.39;93.30;99705.25;5020669;28;20060;-74
2022/03/31 10:46:04;;;;;;;2.28;1.42;;;;;;;4.33;92.77;99703.91;5017470;28;20046;-73
2022/03/31 10:48:33;;;;;;;1.13;0.85;;;;;;;4.31;92.39;99697.16;5023214;28;20523;-73
2022/03/31 10:51:04;;;;;;;1.10;0.90;;;;;;;4.30;93.99;99698.09;5020689;28;20119;-74
2022/03/31 10:53:34;;;;;;;1.15;0.90;;;;;;;4.24;92.77;99693.28;5010685;28;20381;-74
2022/03/31 10:56:02;;;;;;;1.45;1.15;;;;;;;4.30;92.46;99692.88;5015257;28;20076;-73
2022/03/31 10:58:30;;;;;;;1.10;0.93;;;;;;;4.22;92.89;99690.00;5019541;28;20044;-73
2022/03/31 11:00:59;;;;;;;8.80;1.48;;;;;;;4.49;93.43;99690.63;5006901;28;20041;-74
2022/03/31 11:03:26;;;;;;;2.25;1.83;;;;;;;4.58;92.16;99683.03;5027956;28;20037;-75
2022/03/31 11:05:56;;;;;;;1.33;1.02;;;;;;;4.62;93.39;99683.63;5020276;28;20044;-73
2022/03/31 11:08:22;;;;;;;0.73;0.60;;;;;;;4.59;91.74;99678.63;5023242;28;20538;-72
2022/03/31 11:10:52;;;;;;;1.20;0.98;;;;;;;4.75;91.73;99680.84;5025465;28;20065;-73
2022/03/31 11:15:57;;;;;;;0.90;0.73;;;;;;;4.83;91.91;99677.72;5069224;27;20398;-74
2022/03/31 11:18:23;;;;;;;1.83;1.40;;;;;;;4.88;92.04;99676.41;5058834;28;20123;-76
2022/03/31 11:20:55;;;;;;;2.92;1.70;;;;;;;5.18;91.88;99671.59;5081841;28;20040;-75
2022/03/31 11:23:22;;;;;;;3.53;1.80;;;;;;;5.38;91.48;99676.13;5078782;28;20067;-73
2022/03/31 11:25:49;;;;;;;3.58;1.65;;;;;;;5.18;91.01;99668.13;5074864;28;20060;-75
2022/03/31 11:28:16;;;;;;;3.63;1.88;;;;;;;5.37;91.63;99673.63;5080437;28;20050;-75
2022/03/31 11:30:45;;;;;;;3.78;1.85;;;;;;;5.57;90.97;99672.03;5078190;28;20044;-76
2022/03/31 11:33:14;;;;;;;3.45;1.42;;;;;;;5.55;90.71;99657.44;5048975;28;20048;-77
2022/03/31 11:35:41;;;;;;;2.80;1.50;;;;;;;5.50;91.52;99663.97;5084681;28;20094;-73
2022/03/31 11:38:11;;;;;;;4.65;2.35;;;;;;;5.46;90.20;99663.34;5073386;28;20119;-73
2022/03/31 11:40:41;;;;;;;3.97;2.35;;;;;;;5.53;90.43;99663.72;5072792;28;20043;-74
2022/03/31 11:46:05;;;;;;;1.55;1.05;;;;;;;5.53;89.94;99655.91;5063526;28;20401;-73
2022/03/31 11:48:34;;;;;;;1.27;1.05;;;;;;;5.51;91.46;99663.84;5055953;28;20132;-72
2022/03/31 11:51:03;;;;;;;1.17;0.98;;;;;;;5.22;91.34;99665.19;5055508;28;20049;-75
2022/03/31 11:53:31;;;;;;;1.27;1.15;;;;;;;5.00;91.85;99662.53;5055734;28;20045;-79
2022/03/31 11:55:59;;;;;;;1.90;1.40;;;;;;;5.02;92.28;99654.59;5052688;28;20041;-73
2022/03/31 11:58:27;;;;;;;2.75;1.70;;;;;;;4.88;93.54;99658.19;5053801;28;20041;-74
2022/03/31 12:00:54;;;;;;;1.70;1.27;;;;;;;4.85;93.70;99660.19;5057007;28;20052;-74
2022/03/31 12:03:21;;;;;;;1.80;1.10;;;;;;;4.80;94.08;99657.94;5056240;28;20512;-74
2022/03/31 12:05:56;;;;;;;2.30;1.58;;;;;;;4.77;93.92;99660.78;5053744;28;20045;-74
2022/03/31 12:08:24;;;;;;;3.53;1.83;;;;;;;4.70;94.34;99660.50;5050315;28;20045;-74
